createdAt,value
2023-06-11T00:02:23.395Z,100479.72
2023-06-11T00:04:53.378Z,100483.81
2023-06-11T00:07:29.063Z,100483.81
2023-06-11T00:09:58.652Z,100493.13
2023-06-11T00:12:26.268Z,100487.88
2023-06-11T00:15:02.988Z,100490.28
2023-06-11T00:17:34.535Z,100489.50
2023-06-11T00:20:10.973Z,100484.22
2023-06-11T00:22:42.227Z,100487.50
2023-06-11T00:25:13.887Z,100479.34
2023-06-11T00:27:41.638Z,100484.22
2023-06-11T00:30:15.581Z,100481.81
2023-06-11T00:32:47.109Z,100482.22
2023-06-11T00:35:14.844Z,100479.41
2023-06-11T00:37:43.234Z,100478.59
2023-06-11T00:40:10.849Z,100474.16
2023-06-11T00:42:38.681Z,100476.16
2023-06-11T00:45:07.344Z,100467.63
2023-06-11T00:47:38.902Z,100475.75
2023-06-11T00:50:07.930Z,100469.28
2023-06-11T00:52:37.969Z,100469.69
2023-06-11T00:55:05.615Z,100473.31
2023-06-11T00:57:41.507Z,100477.00
2023-06-11T01:00:13.693Z,100475.38
2023-06-11T01:02:52.192Z,100479.00
2023-06-11T01:05:22.738Z,100475.38
2023-06-11T01:07:52.882Z,100471.31
2023-06-11T01:10:30.834Z,100476.16
2023-06-11T01:13:02.560Z,100469.59
2023-06-11T01:15:31.283Z,100469.56
2023-06-11T01:18:20.207Z,100464.19
2023-06-11T01:20:51.224Z,100466.16
2023-06-11T01:23:24.830Z,100460.44
2023-06-11T01:26:11.444Z,100471.38
2023-06-11T01:28:42.422Z,100474.13
2023-06-11T01:31:16.335Z,100469.22
2023-06-11T01:33:44.418Z,100470.81
2023-06-11T01:36:18.400Z,100469.09
2023-06-11T01:38:52.279Z,100464.63
2023-06-11T01:41:39.641Z,100466.25
2023-06-11T01:44:13.995Z,100467.00
2023-06-11T01:46:44.363Z,100467.38
2023-06-11T01:49:16.598Z,100463.25
2023-06-11T01:51:46.549Z,100464.50
2023-06-11T01:54:17.223Z,100459.63
2023-06-11T01:56:47.854Z,100450.66
2023-06-11T01:59:19.016Z,100449.44
2023-06-11T02:01:54.156Z,100442.56
2023-06-11T02:04:21.969Z,100449.06
2023-06-11T02:06:50.135Z,100442.19
2023-06-11T02:09:20.253Z,100446.25
2023-06-11T02:11:55.698Z,100441.78
2023-06-11T02:14:26.471Z,100435.00
2023-06-11T02:16:54.630Z,100440.75
2023-06-11T02:19:22.161Z,100442.06
2023-06-11T02:21:54.783Z,100444.09
2023-06-11T02:24:25.922Z,100430.31
2023-06-11T02:26:53.360Z,100433.66
2023-06-11T02:29:20.837Z,100433.72
2023-06-11T02:31:48.407Z,100432.94
2023-06-11T02:34:21.558Z,100433.78
2023-06-11T02:36:49.163Z,100430.94
2023-06-11T02:39:18.531Z,100435.09
2023-06-11T02:41:49.010Z,100439.56
2023-06-11T02:44:16.837Z,100447.34
2023-06-11T02:46:48.753Z,100434.75
2023-06-11T02:49:19.831Z,100433.56
2023-06-11T02:51:47.301Z,100441.28
2023-06-11T02:54:15.270Z,100442.97
2023-06-11T02:56:42.912Z,100438.50
2023-06-11T02:59:13.299Z,100452.34
2023-06-11T03:01:43.484Z,100442.19
2023-06-11T03:04:14.398Z,100447.06
2023-06-11T03:06:42.064Z,100441.38
2023-06-11T03:09:09.732Z,100440.59
2023-06-11T03:11:42.130Z,100441.38
2023-06-11T03:14:15.203Z,100447.91
2023-06-11T03:16:43.501Z,100441.06
2023-06-11T03:19:17.927Z,100441.06
2023-06-11T03:21:48.817Z,100440.69
2023-06-11T03:24:16.892Z,100438.66
2023-06-11T03:26:44.258Z,100438.66
2023-06-11T03:29:11.747Z,100435.81
2023-06-11T03:31:47.623Z,100435.81
2023-06-11T03:34:19.036Z,100435.38
2023-06-11T03:36:49.197Z,100434.22
2023-06-11T03:39:21.150Z,100439.47
2023-06-11T03:41:52.477Z,100438.66
2023-06-11T03:44:24.155Z,100440.72
2023-06-11T03:46:52.524Z,100431.38
2023-06-11T03:49:19.990Z,100439.88
2023-06-11T03:51:51.401Z,100441.91
2023-06-11T03:54:19.314Z,100439.06
2023-06-11T03:56:49.041Z,100444.75
2023-06-11T03:59:17.691Z,100440.31
2023-06-11T04:01:48.280Z,100453.72
2023-06-11T04:04:19.146Z,100451.28
2023-06-11T04:06:47.540Z,100448.44
2023-06-11T04:09:15.896Z,100448.84
2023-06-11T04:11:44.537Z,100449.22
2023-06-11T04:14:17.776Z,100451.69
2023-06-11T04:16:49.474Z,100456.56
2023-06-11T04:19:19.439Z,100458.94
2023-06-11T04:21:50.930Z,100456.97
2023-06-11T04:24:21.352Z,100468.72
2023-06-11T04:26:49.893Z,100473.16
2023-06-11T04:29:21.217Z,100474.78
2023-06-11T04:31:54.989Z,100473.09
2023-06-11T04:34:30.108Z,100466.63
2023-06-11T04:36:59.796Z,100472.75
2023-06-11T04:39:31.036Z,100477.16
2023-06-11T04:42:00.765Z,100469.91
2023-06-11T04:44:33.265Z,100470.75
2023-06-11T04:47:06.463Z,100468.28
2023-06-11T04:49:41.895Z,100465.81
2023-06-11T04:52:17.045Z,100472.75
2023-06-11T04:54:47.505Z,100472.31
2023-06-11T04:57:15.778Z,100479.66
2023-06-11T04:59:43.408Z,100472.28
2023-06-11T05:02:11.255Z,100467.84
2023-06-11T05:04:39.444Z,100473.13
2023-06-11T05:07:13.459Z,100471.88
2023-06-11T05:09:45.876Z,100472.69
2023-06-11T05:12:14.705Z,100471.44
2023-06-11T05:14:43.261Z,100481.59
2023-06-11T05:17:13.751Z,100472.22
2023-06-11T05:19:44.500Z,100474.66
2023-06-11T05:22:15.741Z,100478.31
2023-06-11T05:24:49.014Z,100481.59
2023-06-11T05:27:21.677Z,100492.56
2023-06-11T05:29:50.666Z,100489.66
2023-06-11T05:32:21.074Z,100487.56
2023-06-11T05:34:52.776Z,100488.00
2023-06-11T05:37:23.802Z,100483.94
2023-06-11T05:39:54.821Z,100483.53
2023-06-11T05:42:26.716Z,100490.81
2023-06-11T05:44:54.721Z,100492.41
2023-06-11T05:47:22.028Z,100485.50
2023-06-11T05:49:51.629Z,100491.56
2023-06-11T05:52:22.935Z,100492.34
2023-06-11T05:54:50.695Z,100493.13
2023-06-11T05:57:20.307Z,100493.13
2023-06-11T05:59:58.891Z,100494.72
2023-06-11T06:02:31.735Z,100495.53
2023-06-11T06:05:00.074Z,100488.19
2023-06-11T06:07:30.385Z,100495.94
2023-06-11T06:09:58.708Z,100495.47
2023-06-11T06:12:26.337Z,100504.41
2023-06-11T06:14:54.693Z,100499.50
2023-06-11T06:17:22.260Z,100496.66
2023-06-11T06:19:50.200Z,100500.25
2023-06-11T06:22:20.039Z,100491.28
2023-06-11T06:24:50.972Z,100491.22
2023-06-11T06:27:20.832Z,100491.56
2023-06-11T06:29:50.235Z,100493.91
2023-06-11T06:32:18.869Z,100488.59
2023-06-11T06:34:46.304Z,100484.50
2023-06-11T06:37:14.618Z,100501.56
2023-06-11T06:39:52.072Z,100497.88
2023-06-11T06:42:22.366Z,100495.00
2023-06-11T06:44:56.730Z,100493.34
2023-06-11T06:47:27.897Z,100507.50
2023-06-11T06:49:59.379Z,100502.56
2023-06-11T06:52:28.138Z,100509.94
2023-06-11T06:54:55.690Z,100501.41
2023-06-11T06:57:31.501Z,100502.56
2023-06-11T07:00:02.218Z,100501.28
2023-06-11T07:02:31.374Z,100505.38
2023-06-11T07:04:58.885Z,100506.59
2023-06-11T07:07:31.855Z,100504.53
2023-06-11T07:10:08.311Z,100500.53
2023-06-11T07:12:37.297Z,100500.03
2023-06-11T07:15:07.754Z,100509.38
2023-06-11T07:17:36.020Z,100500.44
2023-06-11T07:20:05.558Z,100498.00
2023-06-11T07:22:35.881Z,100505.31
2023-06-11T07:25:04.126Z,100504.44
2023-06-11T07:27:34.428Z,100503.16
2023-06-11T07:30:02.843Z,100501.16
2023-06-11T07:32:30.390Z,100501.97
2023-06-11T07:35:01.676Z,100504.41
2023-06-11T07:37:32.973Z,100506.00
2023-06-11T07:40:05.814Z,100500.31
2023-06-11T07:42:36.050Z,100504.41
2023-06-11T07:45:04.051Z,100503.88
2023-06-11T07:47:32.166Z,100502.69
2023-06-11T07:50:00.197Z,100493.34
2023-06-11T07:52:30.650Z,100499.78
2023-06-11T07:55:07.057Z,100493.63
2023-06-11T07:57:34.546Z,100493.22
2023-06-11T08:00:06.381Z,100500.94
2023-06-11T08:02:43.415Z,100499.25
2023-06-11T08:05:18.623Z,100499.66
2023-06-11T08:07:46.336Z,100494.28
2023-06-11T08:10:14.838Z,100493.03
2023-06-11T08:12:44.867Z,100494.56
2023-06-11T08:15:15.214Z,100487.97
2023-06-11T08:17:43.887Z,100491.59
2023-06-11T08:20:11.963Z,100490.72
2023-06-11T08:22:42.636Z,100487.00
2023-06-11T08:25:11.678Z,100491.91
2023-06-11T08:27:39.331Z,100492.97
2023-06-11T08:30:10.630Z,100488.13
2023-06-11T08:32:40.829Z,100487.66
2023-06-11T08:35:11.155Z,100483.16
2023-06-11T08:37:42.007Z,100487.59
2023-06-11T08:40:12.686Z,100490.44
2023-06-11T08:42:43.855Z,100488.78
2023-06-11T08:45:17.052Z,100487.59
2023-06-11T08:47:52.722Z,100487.97
2023-06-11T08:50:20.917Z,100493.28
2023-06-11T08:52:54.314Z,100491.69
2023-06-11T08:55:24.242Z,100484.81
2023-06-11T08:57:54.339Z,100497.00
2023-06-11T09:00:30.130Z,100496.28
2023-06-11T09:03:04.900Z,100495.53
2023-06-11T09:05:38.193Z,100503.22
2023-06-11T09:08:09.449Z,100501.97
2023-06-11T09:10:57.002Z,100499.50
2023-06-11T09:13:28.599Z,100506.84
2023-06-11T09:16:02.250Z,100504.00
2023-06-11T09:18:33.018Z,100503.56
2023-06-11T09:21:03.651Z,100502.75
2023-06-11T09:23:35.488Z,100500.78
2023-06-11T09:26:03.601Z,100507.66
2023-06-11T09:28:35.919Z,100507.66
2023-06-11T09:31:07.562Z,100507.66
2023-06-11T09:33:37.932Z,100509.25
2023-06-11T09:36:05.536Z,100506.00
2023-06-11T09:38:35.881Z,100510.88
2023-06-11T09:41:09.819Z,100511.22
2023-06-11T09:43:44.390Z,100509.25
2023-06-11T09:46:12.066Z,100510.44
2023-06-11T09:48:40.309Z,100510.81
2023-06-11T09:51:07.948Z,100508.78
2023-06-11T09:53:42.478Z,100504.75
2023-06-11T09:56:12.234Z,100504.31
2023-06-11T09:58:40.588Z,100496.59
2023-06-11T10:01:08.667Z,100502.28
2023-06-11T10:03:37.011Z,100501.81
2023-06-11T10:06:09.208Z,100503.44
2023-06-11T10:08:37.971Z,100503.81
2023-06-11T10:11:06.160Z,100502.56
2023-06-11T10:13:36.269Z,100507.03
2023-06-11T10:16:04.867Z,100506.16
2023-06-11T10:18:37.411Z,100503.31
2023-06-11T10:21:07.345Z,100506.22
2023-06-11T10:23:40.468Z,100504.19
2023-06-11T10:26:09.180Z,100516.78
2023-06-11T10:28:37.896Z,100506.66
2023-06-11T10:31:08.504Z,100503.00
2023-06-11T10:33:48.192Z,100505.06
2023-06-11T10:36:25.545Z,100504.53
2023-06-11T10:38:58.833Z,100503.38
2023-06-11T10:41:30.326Z,100509.50
2023-06-11T10:43:59.169Z,100506.66
2023-06-11T10:46:27.157Z,100510.28
2023-06-11T10:48:57.906Z,100507.44
2023-06-11T10:51:26.495Z,100503.44
2023-06-11T10:54:01.145Z,100505.41
2023-06-11T10:56:31.144Z,100508.25
2023-06-11T10:58:58.602Z,100503.81
2023-06-11T11:01:26.496Z,100501.34
2023-06-11T11:03:56.755Z,100503.00
2023-06-11T11:06:31.369Z,100500.16
2023-06-11T11:09:03.634Z,100495.25
2023-06-11T11:11:34.255Z,100492.81
2023-06-11T11:14:02.322Z,100495.66
2023-06-11T11:16:32.790Z,100498.84
2023-06-11T11:19:03.247Z,100493.16
2023-06-11T11:21:31.683Z,100494.41
2023-06-11T11:24:00.089Z,100490.31
2023-06-11T11:26:28.472Z,100487.91
2023-06-11T11:29:01.772Z,100489.50
2023-06-11T11:31:34.837Z,100487.09
2023-06-11T11:34:04.763Z,100481.41
2023-06-11T11:36:32.636Z,100487.03
2023-06-11T11:39:15.655Z,100485.78
2023-06-11T11:41:50.723Z,100481.75
2023-06-11T11:44:18.487Z,100474.78
2023-06-11T11:46:45.909Z,100474.72
2023-06-11T11:49:13.919Z,100476.63
2023-06-11T11:51:46.967Z,100466.09
2023-06-11T11:54:14.975Z,100467.34
2023-06-11T11:56:45.372Z,100464.06
2023-06-11T11:59:19.347Z,100467.19
2023-06-11T12:02:04.553Z,100465.94
2023-06-11T12:04:43.621Z,100453.03
2023-06-11T12:07:16.511Z,100457.47
2023-06-11T12:09:49.736Z,100453.53
2023-06-11T12:12:23.412Z,100450.69
2023-06-11T12:14:50.858Z,100451.94
2023-06-11T12:17:19.119Z,100451.06
2023-06-11T12:19:51.564Z,100448.94
2023-06-11T12:22:21.602Z,100450.63
2023-06-11T12:24:51.463Z,100446.09
2023-06-11T12:27:18.887Z,100443.25
2023-06-11T12:29:53.005Z,100444.44
2023-06-11T12:32:26.494Z,100437.94
2023-06-11T12:34:56.765Z,100436.69
2023-06-11T12:37:26.011Z,100435.09
2023-06-11T12:39:56.653Z,100433.13
2023-06-11T12:42:28.977Z,100434.72
2023-06-11T12:45:00.162Z,100431.88
2023-06-11T12:47:28.343Z,100433.91
2023-06-11T12:49:58.664Z,100430.56
2023-06-11T12:52:26.768Z,100433.84
2023-06-11T12:54:54.269Z,100432.25
2023-06-11T12:57:24.523Z,100433.84
2023-06-11T12:59:54.798Z,100436.69
2023-06-11T13:02:25.068Z,100428.59
2023-06-11T13:04:52.681Z,100432.25
2023-06-11T13:07:23.092Z,100432.25
2023-06-11T13:09:53.514Z,100428.59
2023-06-11T13:12:22.383Z,100428.59
2023-06-11T13:14:50.048Z,100430.19
2023-06-11T13:17:18.123Z,100428.94
2023-06-11T13:19:45.712Z,100422.44
2023-06-11T13:22:13.929Z,100409.47
2023-06-11T13:24:44.461Z,100416.75
2023-06-11T13:27:15.096Z,100410.69
2023-06-11T13:29:43.605Z,100417.56
2023-06-11T13:32:14.371Z,100415.88
2023-06-11T13:34:44.275Z,100413.81
2023-06-11T13:37:17.455Z,100410.56
2023-06-11T13:39:48.310Z,100404.88
2023-06-11T13:42:18.027Z,100412.94
2023-06-11T13:44:49.258Z,100410.97
2023-06-11T13:47:19.482Z,100411.84
2023-06-11T13:49:49.374Z,100412.81
2023-06-11T13:52:19.662Z,100408.88
2023-06-11T13:54:47.364Z,100408.00
2023-06-11T13:57:21.150Z,100413.69
2023-06-11T13:59:49.218Z,100400.31
2023-06-11T14:02:20.420Z,100404.81
2023-06-11T14:04:53.108Z,100407.19
2023-06-11T14:07:20.932Z,100404.81
2023-06-11T14:09:50.685Z,100406.03
2023-06-11T14:12:18.388Z,100388.94
2023-06-11T14:14:46.214Z,100387.72
2023-06-11T14:17:13.680Z,100390.56
2023-06-11T14:19:46.618Z,100396.19
2023-06-11T14:22:18.106Z,100394.56
2023-06-11T14:24:48.072Z,100384.41
2023-06-11T14:27:17.209Z,100385.22
2023-06-11T14:29:44.510Z,100380.69
2023-06-11T14:32:14.985Z,100380.28
2023-06-11T14:34:46.205Z,100385.97
2023-06-11T14:37:14.458Z,100391.44
2023-06-11T14:39:44.946Z,100377.47
2023-06-11T14:42:13.307Z,100374.97
2023-06-11T14:44:43.635Z,100380.25
2023-06-11T14:47:14.385Z,100380.19
2023-06-11T14:49:41.734Z,100376.56
2023-06-11T14:52:12.213Z,100373.25
2023-06-11T14:54:42.405Z,100374.97
2023-06-11T14:57:13.937Z,100370.91
2023-06-11T14:59:43.185Z,100356.22
2023-06-11T15:02:11.710Z,100363.16
2023-06-11T15:04:44.784Z,100358.63
2023-06-11T15:09:46.476Z,100347.25
2023-06-11T15:12:15.151Z,100351.72
2023-06-11T15:14:45.894Z,100347.63
2023-06-11T15:17:16.118Z,100349.28
2023-06-11T15:19:46.441Z,100343.97
2023-06-11T15:22:19.689Z,100341.94
2023-06-11T15:24:52.795Z,100333.00
2023-06-11T15:27:20.191Z,100333.75
2023-06-11T15:29:47.808Z,100333.75
2023-06-11T15:32:18.479Z,100332.00
2023-06-11T15:34:46.137Z,100338.72
2023-06-11T15:37:18.326Z,100339.28
2023-06-11T15:39:54.619Z,100340.59
2023-06-11T15:42:27.433Z,100338.22
2023-06-11T15:44:54.880Z,100336.97
2023-06-11T15:47:22.306Z,100331.25
2023-06-11T15:49:51.192Z,100328.41
2023-06-11T15:52:19.637Z,100328.00
2023-06-11T15:54:47.390Z,100329.66
2023-06-11T15:57:15.115Z,100329.66
2023-06-11T15:59:45.365Z,100324.78
2023-06-11T16:02:13.064Z,100320.66
2023-06-11T16:04:44.540Z,100326.38
2023-06-11T16:07:13.931Z,100326.81
2023-06-11T16:09:43.939Z,100326.03
2023-06-11T16:12:11.417Z,100319.09
2023-06-11T16:14:42.635Z,100325.56
2023-06-11T16:17:10.585Z,100322.38
2023-06-11T16:19:42.885Z,100321.13
2023-06-11T16:22:13.538Z,100318.19
2023-06-11T16:24:44.042Z,100328.78
2023-06-11T16:27:11.516Z,100325.50
2023-06-11T16:29:38.891Z,100321.50
2023-06-11T16:32:12.435Z,100327.19
2023-06-11T16:34:43.118Z,100320.66
2023-06-11T16:37:16.394Z,100332.88
2023-06-11T16:39:49.508Z,100334.09
2023-06-11T16:42:17.628Z,100335.28
2023-06-11T16:44:47.876Z,100339.81
2023-06-11T16:47:20.804Z,100345.41
2023-06-11T16:49:51.322Z,100349.97
2023-06-11T16:52:22.400Z,100349.16
2023-06-11T16:54:49.958Z,100354.50
2023-06-11T16:57:20.791Z,100344.31
2023-06-11T16:59:51.173Z,100352.00
2023-06-11T17:02:35.019Z,100353.16
2023-06-11T17:05:03.606Z,100352.00
2023-06-11T17:07:35.770Z,100347.19
2023-06-11T17:10:09.045Z,100348.72
2023-06-11T17:12:41.712Z,100357.34
2023-06-11T17:15:10.636Z,100365.88
2023-06-11T17:17:38.436Z,100365.44
2023-06-11T17:20:06.592Z,100363.75
2023-06-11T17:22:37.210Z,100364.25
2023-06-11T17:25:07.809Z,100368.81
2023-06-11T17:27:35.865Z,100372.44
2023-06-11T17:30:06.568Z,100373.69
2023-06-11T17:32:34.885Z,100380.19
2023-06-11T17:35:05.719Z,100384.63
2023-06-11T17:37:34.502Z,100384.25
2023-06-11T17:40:02.036Z,100381.88
2023-06-11T17:42:29.614Z,100392.00
2023-06-11T17:44:59.706Z,100388.38
2023-06-11T17:47:26.884Z,100389.63
2023-06-11T17:49:56.490Z,100390.41
2023-06-11T17:52:26.766Z,100403.06
2023-06-11T17:54:56.291Z,100405.91
2023-06-11T17:57:31.654Z,100406.69
2023-06-11T18:00:02.628Z,100413.97
2023-06-11T18:02:38.048Z,100417.63
2023-06-11T18:05:10.681Z,100426.63
2023-06-11T18:07:47.094Z,100429.81
2023-06-11T18:10:15.637Z,100431.06
2023-06-11T18:12:48.608Z,100436.75
2023-06-11T18:15:32.007Z,100447.75
2023-06-11T18:18:00.988Z,100447.75
2023-06-11T18:20:30.929Z,100465.22
2023-06-11T18:22:58.677Z,100473.75
2023-06-11T18:25:29.084Z,100497.41
2023-06-11T18:27:57.586Z,100492.44
2023-06-11T18:30:27.352Z,100500.63
2023-06-11T18:33:01.087Z,100504.28
2023-06-11T18:35:28.440Z,100511.16
2023-06-11T18:38:00.320Z,100511.94
2023-06-11T18:40:27.623Z,100514.34
2023-06-11T18:42:58.207Z,100512.75
2023-06-11T18:45:28.581Z,100519.25
2023-06-11T18:47:57.015Z,100518.00
2023-06-11T18:50:30.182Z,100520.84
2023-06-11T18:52:57.635Z,100529.84
2023-06-11T18:55:26.070Z,100527.38
2023-06-11T18:57:59.595Z,100540.44
2023-06-11T19:00:27.879Z,100544.50
2023-06-11T19:02:55.550Z,100545.25
2023-06-11T19:05:23.666Z,100535.53
2023-06-11T19:07:51.246Z,100540.44
2023-06-11T19:10:23.765Z,100541.28
2023-06-11T19:12:51.860Z,100520.97
2023-06-11T19:15:19.257Z,100522.66
2023-06-11T19:17:49.856Z,100521.84
2023-06-11T19:20:20.641Z,100522.66
2023-06-11T19:22:48.884Z,100528.06
2023-06-11T19:25:25.034Z,100534.91
2023-06-11T19:27:52.415Z,100540.19
2023-06-11T19:30:22.430Z,100542.28
2023-06-11T19:32:50.003Z,100544.69
2023-06-11T19:35:23.241Z,100548.34
2023-06-11T19:37:51.934Z,100554.03
2023-06-11T19:40:25.676Z,100558.53
2023-06-11T19:42:58.559Z,100565.06
2023-06-11T19:45:27.045Z,100561.03
2023-06-11T19:47:55.624Z,100555.41
2023-06-11T19:50:31.619Z,100566.81
2023-06-11T19:53:03.773Z,100559.47
2023-06-11T19:55:31.723Z,100573.34
2023-06-11T19:58:03.342Z,100563.19
2023-06-11T20:00:33.523Z,100568.47
2023-06-11T20:03:03.972Z,100571.31
2023-06-11T20:05:33.904Z,100572.56
2023-06-11T20:08:04.601Z,100553.84
2023-06-11T20:10:37.217Z,100548.97
2023-06-11T20:13:04.843Z,100545.75
2023-06-11T20:15:35.121Z,100564.44
2023-06-11T20:18:08.709Z,100571.38
2023-06-11T20:20:37.097Z,100568.53
2023-06-11T20:23:10.052Z,100579.91
2023-06-11T20:25:37.808Z,100585.59
2023-06-11T20:28:06.072Z,100594.94
2023-06-11T20:30:36.939Z,100604.72
2023-06-11T20:33:04.330Z,100610.41
2023-06-11T20:35:34.469Z,100604.28
2023-06-11T20:38:07.214Z,100616.91
2023-06-11T20:40:37.782Z,100613.69
2023-06-11T20:43:05.662Z,100603.94
2023-06-11T20:45:34.944Z,100601.09
2023-06-11T20:48:06.230Z,100592.97
2023-06-11T20:50:36.778Z,100590.91
2023-06-11T20:53:16.613Z,100590.13
2023-06-11T20:55:57.267Z,100592.97
2023-06-11T20:58:24.938Z,100592.97
2023-06-11T21:00:55.792Z,100608.00
2023-06-11T21:03:26.208Z,100606.38
2023-06-11T21:05:55.410Z,100612.09
2023-06-11T21:08:23.193Z,100626.31
2023-06-11T21:10:50.985Z,100632.00
2023-06-11T21:13:19.322Z,100640.53
2023-06-11T21:15:46.754Z,100639.34
2023-06-11T21:18:17.376Z,100639.34
2023-06-11T21:20:45.068Z,100646.28
2023-06-11T21:23:12.942Z,100637.75
2023-06-11T21:25:43.180Z,100633.66
2023-06-11T21:28:11.002Z,100628.78
2023-06-11T21:30:38.993Z,100628.41
2023-06-11T21:33:09.462Z,100636.13
2023-06-11T21:35:39.492Z,100623.53
2023-06-11T21:38:07.057Z,100627.16
2023-06-11T21:40:34.861Z,100636.50
2023-06-11T21:43:04.857Z,100635.25
2023-06-11T21:45:35.186Z,100634.47
2023-06-11T21:48:05.823Z,100647.09
2023-06-11T21:50:39.578Z,100649.94
2023-06-11T21:53:14.663Z,100661.69
2023-06-11T21:55:42.979Z,100660.88
2023-06-11T21:58:13.363Z,100651.53
2023-06-11T22:00:41.208Z,100655.63
2023-06-11T22:03:11.111Z,100655.63
2023-06-11T22:05:39.075Z,100663.38
2023-06-11T22:08:09.558Z,100666.22
2023-06-11T22:10:37.239Z,100672.69
2023-06-11T22:13:05.696Z,100668.66
2023-06-11T22:15:39.618Z,100666.63
2023-06-11T22:18:11.128Z,100669.47
2023-06-11T22:20:41.823Z,100665.41
2023-06-11T22:23:13.966Z,100668.66
2023-06-11T22:25:41.953Z,100671.50
2023-06-11T22:28:15.031Z,100671.56
2023-06-11T22:30:56.467Z,100666.31
2023-06-11T22:33:24.766Z,100667.13
2023-06-11T22:35:54.623Z,100665.13
2023-06-11T22:38:24.663Z,100670.38
2023-06-11T22:40:52.213Z,100671.19
2023-06-11T22:43:22.566Z,100673.63
2023-06-11T22:45:52.212Z,100683.75
2023-06-11T22:48:22.122Z,100678.06
2023-06-11T22:50:53.928Z,100672.38
2023-06-11T22:53:29.029Z,100668.34
2023-06-11T22:55:57.902Z,100654.94
2023-06-11T22:58:25.503Z,100659.00
2023-06-11T23:00:57.895Z,100652.50
2023-06-11T23:03:25.546Z,100658.19
2023-06-11T23:05:56.942Z,100651.72
2023-06-11T23:08:25.034Z,100657.78
2023-06-11T23:10:52.616Z,100652.97
2023-06-11T23:13:26.340Z,100646.81
2023-06-11T23:15:57.209Z,100648.06
2023-06-11T23:18:31.274Z,100643.97
2023-06-11T23:21:05.328Z,100647.25
2023-06-11T23:23:38.445Z,100631.00
2023-06-11T23:26:11.112Z,100637.88
2023-06-11T23:28:38.717Z,100632.19
2023-06-11T23:31:11.977Z,100625.69
2023-06-11T23:33:39.805Z,100632.19
2023-06-11T23:36:07.395Z,100625.69
2023-06-11T23:38:35.603Z,100617.94
2023-06-11T23:41:08.936Z,100621.66
2023-06-11T23:43:39.465Z,100615.56
2023-06-11T23:46:12.577Z,100615.97
2023-06-11T23:48:43.099Z,100611.47
2023-06-11T23:51:11.241Z,100612.25
2023-06-11T23:53:41.471Z,100606.56
2023-06-11T23:56:12.145Z,100603.72
2023-06-11T23:58:40.973Z,100605.41
